createdAt,value
2018-04-02T00:00:48.604Z,130.10
2018-04-02T00:01:48.588Z,127.70
2018-04-02T00:02:48.556Z,129.70
2018-04-02T00:03:48.537Z,124.10
2018-04-02T00:04:48.516Z,130.90
2018-04-02T00:05:48.496Z,127.90
2018-04-02T00:06:48.476Z,121.00
2018-04-02T00:07:48.453Z,126.40
2018-04-02T00:08:48.475Z,128.40
2018-04-02T00:09:48.422Z,126.40
2018-04-02T00:10:48.391Z,125.60
2018-04-02T00:11:48.369Z,130.50
2018-04-02T00:12:48.351Z,131.30
2018-04-02T00:13:48.339Z,128.50
2018-04-02T00:14:48.312Z,131.50
2018-04-02T00:15:48.289Z,129.40
2018-04-02T00:16:48.277Z,131.70
2018-04-02T00:17:48.247Z,133.80
2018-04-02T00:18:48.228Z,127.80
2018-04-02T00:19:48.215Z,132.80
2018-04-02T00:20:48.190Z,133.90
2018-04-02T00:21:48.169Z,134.00
2018-04-02T00:22:48.144Z,134.40
2018-04-02T00:23:48.128Z,133.90
2018-04-02T00:24:48.105Z,139.70
2018-04-02T00:25:48.081Z,143.00
2018-04-02T00:26:48.066Z,136.50
2018-04-02T00:27:48.045Z,136.20
2018-04-02T00:28:48.038Z,137.50
2018-04-02T00:29:48.014Z,137.60
2018-04-02T00:30:47.979Z,136.70
2018-04-02T00:31:47.961Z,137.70
2018-04-02T00:32:47.938Z,136.40
2018-04-02T00:33:47.925Z,130.20
2018-04-02T00:34:47.900Z,135.50
2018-04-02T00:35:47.888Z,135.10
2018-04-02T00:36:47.860Z,137.90
2018-04-02T00:37:47.839Z,135.50
2018-04-02T00:38:47.819Z,134.40
2018-04-02T00:39:47.795Z,135.50
2018-04-02T00:40:47.775Z,132.80
2018-04-02T00:41:47.760Z,138.40
2018-04-02T00:42:47.733Z,137.50
2018-04-02T00:43:47.716Z,137.00
2018-04-02T00:44:47.691Z,140.00
2018-04-02T00:45:47.670Z,137.50
2018-04-02T00:46:47.657Z,142.70
2018-04-02T00:47:47.637Z,144.30
2018-04-02T00:48:47.645Z,142.30
2018-04-02T00:49:47.591Z,138.00
2018-04-02T00:50:47.575Z,144.00
2018-04-02T00:51:47.553Z,142.00
2018-04-02T00:52:47.526Z,143.80
2018-04-02T00:53:47.506Z,143.30
2018-04-02T00:54:47.486Z,138.10
2018-04-02T00:55:47.465Z,139.70
2018-04-02T00:56:47.445Z,136.80
2018-04-02T00:57:47.429Z,148.00
2018-04-02T00:58:47.405Z,141.30
2018-04-02T00:59:47.382Z,140.90
2018-04-02T01:00:47.364Z,141.90
2018-04-02T01:01:47.343Z,140.40
2018-04-02T01:02:47.322Z,141.50
2018-04-02T01:03:47.304Z,142.70
2018-04-02T01:04:47.283Z,143.50
2018-04-02T01:05:47.265Z,143.70
2018-04-02T01:06:47.244Z,137.90
2018-04-02T01:07:47.221Z,140.20
2018-04-02T01:08:47.197Z,136.90
2018-04-02T01:09:47.181Z,137.80
2018-04-02T01:10:47.155Z,137.10
2018-04-02T01:11:47.140Z,137.90
2018-04-02T01:12:47.120Z,130.90
2018-04-02T01:13:47.098Z,135.80
2018-04-02T01:14:47.076Z,134.70
2018-04-02T01:15:47.063Z,135.70
2018-04-02T01:16:47.036Z,135.30
2018-04-02T01:17:47.024Z,132.30
2018-04-02T01:18:47.001Z,136.60
2018-04-02T01:19:46.974Z,135.00
2018-04-02T01:20:46.956Z,134.50
2018-04-02T01:21:46.932Z,143.80
2018-04-02T01:22:46.910Z,139.30
2018-04-02T01:23:46.897Z,145.10
2018-04-02T01:24:46.870Z,143.40
2018-04-02T01:25:46.852Z,133.10
2018-04-02T01:26:46.830Z,137.70
2018-04-02T01:27:46.808Z,133.60
2018-04-02T01:28:46.788Z,141.10
2018-04-02T01:29:46.766Z,138.10
2018-04-02T01:30:46.748Z,144.00
2018-04-02T01:31:46.726Z,139.20
2018-04-02T01:32:46.704Z,135.50
2018-04-02T01:33:46.690Z,140.60
2018-04-02T01:34:46.665Z,147.30
2018-04-02T01:35:46.649Z,147.70
2018-04-02T01:36:46.620Z,141.40
2018-04-02T01:37:46.602Z,148.10
2018-04-02T01:38:46.578Z,146.70
2018-04-02T01:39:46.562Z,157.20
2018-04-02T01:40:46.541Z,146.70
2018-04-02T01:41:46.523Z,156.70
2018-04-02T01:42:46.497Z,155.90
2018-04-02T01:43:46.480Z,164.30
2018-04-02T01:44:46.456Z,168.10
2018-04-02T01:45:46.435Z,168.30
2018-04-02T01:46:46.416Z,179.60
2018-04-02T01:47:46.404Z,172.50
2018-04-02T01:48:46.372Z,174.80
2018-04-02T01:49:46.357Z,178.30
2018-04-02T01:50:46.334Z,179.80
2018-04-02T01:51:46.310Z,181.70
2018-04-02T01:52:46.292Z,176.10
2018-04-02T01:53:46.273Z,172.40
2018-04-02T01:54:46.245Z,161.60
2018-04-02T01:55:46.225Z,157.60
2018-04-02T01:56:46.205Z,156.80
2018-04-02T01:57:46.186Z,156.80
2018-04-02T01:58:46.162Z,158.20
2018-04-02T01:59:46.145Z,156.40
2018-04-02T02:00:46.123Z,156.50
2018-04-02T02:01:46.106Z,160.50
2018-04-02T02:02:46.090Z,157.80
2018-04-02T02:03:46.061Z,152.80
2018-04-02T02:04:46.041Z,144.80
2018-04-02T02:05:46.020Z,150.30
2018-04-02T02:06:46.000Z,154.60
2018-04-02T02:07:45.978Z,147.20
2018-04-02T02:08:45.959Z,150.60
2018-04-02T02:09:45.941Z,145.40
2018-04-02T02:10:45.915Z,144.20
2018-04-02T02:11:45.897Z,142.50
2018-04-02T02:12:45.875Z,143.80
2018-04-02T02:13:45.865Z,136.60
2018-04-02T02:14:45.833Z,140.20
2018-04-02T02:15:45.820Z,137.60
2018-04-02T02:16:45.794Z,138.80
2018-04-02T02:17:45.770Z,147.00
2018-04-02T02:18:45.754Z,142.60
2018-04-02T02:19:45.731Z,137.90
2018-04-02T02:20:45.719Z,150.20
2018-04-02T02:21:45.690Z,152.10
2018-04-02T02:22:45.680Z,154.40
2018-04-02T02:23:45.646Z,159.10
2018-04-02T02:24:45.625Z,157.90
2018-04-02T02:25:45.605Z,156.70
2018-04-02T02:26:45.585Z,159.30
2018-04-02T02:27:45.572Z,160.80
2018-04-02T02:28:45.553Z,159.90
2018-04-02T02:29:45.524Z,161.90
2018-04-02T02:30:45.515Z,162.80
2018-04-02T02:31:45.480Z,164.10
2018-04-02T02:32:45.461Z,158.50
2018-04-02T02:33:45.447Z,146.80
2018-04-02T02:34:45.422Z,150.70
2018-04-02T02:35:45.399Z,152.30
2018-04-02T02:36:45.381Z,147.90
2018-04-02T02:37:45.358Z,151.90
2018-04-02T02:38:45.335Z,151.30
2018-04-02T02:39:45.315Z,150.40
2018-04-02T02:40:45.295Z,151.10
2018-04-02T02:41:45.276Z,147.00
2018-04-02T02:42:45.256Z,149.30
2018-04-02T02:43:45.241Z,153.10
2018-04-02T02:44:45.219Z,144.30
2018-04-02T02:45:45.192Z,145.40
2018-04-02T02:46:45.176Z,143.50
2018-04-02T02:47:45.154Z,142.20
2018-04-02T02:48:45.128Z,142.30
2018-04-02T02:49:45.112Z,138.90
2018-04-02T02:50:45.087Z,140.50
2018-04-02T02:51:45.070Z,134.70
2018-04-02T02:52:45.046Z,137.30
2018-04-02T02:53:45.026Z,135.90
2018-04-02T02:54:45.005Z,138.40
2018-04-02T02:55:44.991Z,135.50
2018-04-02T02:56:44.962Z,144.70
2018-04-02T02:57:44.948Z,143.00
2018-04-02T02:58:44.923Z,149.30
2018-04-02T02:59:44.899Z,146.80
2018-04-02T03:00:44.883Z,135.50
2018-04-02T03:01:44.860Z,135.10
2018-04-02T03:02:44.837Z,129.40
2018-04-02T03:03:44.816Z,125.80
2018-04-02T03:04:44.797Z,124.40
2018-04-02T03:05:44.781Z,125.60
2018-04-02T03:06:44.755Z,126.70
2018-04-02T03:07:44.733Z,126.10
2018-04-02T03:08:44.717Z,120.00
2018-04-02T03:09:44.707Z,125.00
2018-04-02T03:10:44.682Z,119.70
2018-04-02T03:11:44.653Z,118.70
2018-04-02T03:12:44.633Z,122.00
2018-04-02T03:13:44.608Z,119.90
2018-04-02T03:14:44.599Z,122.10
2018-04-02T03:15:44.565Z,120.10
2018-04-02T03:16:44.545Z,122.10
2018-04-02T03:17:44.528Z,118.00
2018-04-02T03:18:44.505Z,119.90
2018-04-02T03:19:44.486Z,122.20
2018-04-02T03:20:44.464Z,123.60
2018-04-02T03:21:44.441Z,121.60
2018-04-02T03:22:44.424Z,123.00
2018-04-02T03:23:44.402Z,121.50
2018-04-02T03:24:44.378Z,125.00
2018-04-02T03:25:44.369Z,120.00
2018-04-02T03:26:44.345Z,117.20
2018-04-02T03:27:44.314Z,122.10
2018-04-02T03:28:44.303Z,122.40
2018-04-02T03:29:44.277Z,124.30
2018-04-02T03:30:44.257Z,126.00
2018-04-02T03:31:44.236Z,122.90
2018-04-02T03:32:44.216Z,122.20
2018-04-02T03:33:44.193Z,123.50
2018-04-02T03:34:44.171Z,118.70
2018-04-02T03:35:44.155Z,122.00
2018-04-02T03:36:44.130Z,121.30
2018-04-02T03:37:44.108Z,119.80
2018-04-02T03:38:44.093Z,123.40
2018-04-02T03:39:44.065Z,125.80
2018-04-02T03:40:44.047Z,121.30
2018-04-02T03:41:44.025Z,123.50
2018-04-02T03:42:44.004Z,131.90
2018-04-02T03:43:43.981Z,127.70
2018-04-02T03:44:43.969Z,126.70
2018-04-02T03:45:43.946Z,127.30
2018-04-02T03:46:43.925Z,124.20
2018-04-02T03:47:43.901Z,124.00
2018-04-02T03:48:43.885Z,124.90
2018-04-02T03:49:43.864Z,123.80
2018-04-02T03:50:43.838Z,127.20
2018-04-02T03:51:43.813Z,125.60
2018-04-02T03:52:43.796Z,130.60
2018-04-02T03:53:43.773Z,127.80
2018-04-02T03:54:43.805Z,174.00
2018-04-02T03:55:43.735Z,213.10
2018-04-02T03:56:43.715Z,228.70
2018-04-02T03:57:43.695Z,246.40
2018-04-02T03:58:43.672Z,296.30
2018-04-02T03:59:43.656Z,318.30
2018-04-02T04:00:43.632Z,274.10
2018-04-02T04:01:43.608Z,294.70
2018-04-02T04:02:43.586Z,252.60
2018-04-02T04:03:43.568Z,232.30
2018-04-02T04:04:43.549Z,206.00
2018-04-02T04:05:43.524Z,212.10
2018-04-02T04:06:43.506Z,198.50
2018-04-02T04:07:43.485Z,196.20
2018-04-02T04:08:43.466Z,193.00
2018-04-02T04:09:43.444Z,196.40
2018-04-02T04:10:43.425Z,198.50
2018-04-02T04:11:43.403Z,186.10
2018-04-02T04:12:43.386Z,177.40
2018-04-02T04:13:43.361Z,170.10
2018-04-02T04:14:43.338Z,175.80
2018-04-02T04:15:43.315Z,185.90
2018-04-02T04:16:43.298Z,181.20
2018-04-02T04:17:43.274Z,181.00
2018-04-02T04:18:43.266Z,165.40
2018-04-02T04:19:43.235Z,147.60
2018-04-02T04:20:43.217Z,151.70
2018-04-02T04:21:43.194Z,141.10
2018-04-02T04:22:43.174Z,139.90
2018-04-02T04:23:43.158Z,137.10
2018-04-02T04:24:43.134Z,135.70
2018-04-02T04:25:43.113Z,135.20
2018-04-02T04:26:43.089Z,130.20
2018-04-02T04:27:43.071Z,136.80
2018-04-02T04:28:43.048Z,126.70
2018-04-02T04:29:43.025Z,133.10
2018-04-02T04:30:43.004Z,126.40
2018-04-02T04:31:42.984Z,127.60
2018-04-02T04:32:42.965Z,123.70
2018-04-02T04:33:42.944Z,124.90
2018-04-02T04:34:42.925Z,129.40
2018-04-02T04:35:42.903Z,125.90
2018-04-02T04:36:42.880Z,124.80
2018-04-02T04:37:42.859Z,123.50
2018-04-02T04:38:42.839Z,125.10
2018-04-02T04:39:42.816Z,124.80
2018-04-02T04:40:42.800Z,122.10
2018-04-02T04:41:42.774Z,124.40
2018-04-02T04:42:42.757Z,124.80
2018-04-02T04:43:42.740Z,125.40
2018-04-02T04:44:42.716Z,127.10
2018-04-02T04:45:42.741Z,124.00
2018-04-02T04:46:42.673Z,133.30
2018-04-02T04:47:42.653Z,128.20
2018-04-02T04:48:42.628Z,125.40
2018-04-02T04:49:42.667Z,126.30
2018-04-02T04:50:42.587Z,124.40
2018-04-02T04:51:42.565Z,119.40
2018-04-02T04:52:42.545Z,121.20
2018-04-02T04:53:42.524Z,125.90
2018-04-02T04:54:42.503Z,127.40
2018-04-02T04:55:42.484Z,123.10
2018-04-02T04:56:42.462Z,125.80
2018-04-02T04:57:42.444Z,118.80
2018-04-02T04:58:42.420Z,122.90
2018-04-02T04:59:42.404Z,121.80
2018-04-02T05:00:42.383Z,123.20
2018-04-02T05:01:42.363Z,128.90
2018-04-02T05:02:42.337Z,132.70
2018-04-02T05:03:42.329Z,143.20
2018-04-02T05:04:42.296Z,140.50
2018-04-02T05:05:42.280Z,136.40
2018-04-02T05:06:42.258Z,138.70
2018-04-02T05:07:42.235Z,137.80
2018-04-02T05:08:42.214Z,139.00
2018-04-02T05:09:42.190Z,132.90
2018-04-02T05:10:42.174Z,134.60
2018-04-02T05:11:42.152Z,135.30
2018-04-02T05:12:42.129Z,142.60
2018-04-02T05:13:42.109Z,134.00
2018-04-02T05:14:42.090Z,132.40
2018-04-02T05:15:42.064Z,136.50
2018-04-02T05:16:42.048Z,131.00
2018-04-02T05:17:42.070Z,128.30
2018-04-02T05:18:42.007Z,126.50
2018-04-02T05:19:41.994Z,123.10
2018-04-02T05:20:41.960Z,125.90
2018-04-02T05:21:41.950Z,130.80
2018-04-02T05:22:41.922Z,123.90
2018-04-02T05:23:41.901Z,125.10
2018-04-02T05:24:41.883Z,126.10
2018-04-02T05:25:41.858Z,127.00
2018-04-02T05:26:41.834Z,124.00
2018-04-02T05:27:41.815Z,125.90
2018-04-02T05:28:41.797Z,126.40
2018-04-02T05:29:41.838Z,126.90
2018-04-02T05:30:41.767Z,128.60
2018-04-02T05:31:41.731Z,125.90
2018-04-02T05:32:41.716Z,127.70
2018-04-02T05:33:41.692Z,120.40
2018-04-02T05:34:41.676Z,124.90
2018-04-02T05:35:41.653Z,126.90
2018-04-02T05:36:41.629Z,126.60
2018-04-02T05:37:41.605Z,125.90
2018-04-02T05:38:41.586Z,125.90
2018-04-02T05:39:41.584Z,127.90
2018-04-02T05:40:41.544Z,124.50
2018-04-02T05:41:41.524Z,128.40
2018-04-02T05:42:41.503Z,129.20
2018-04-02T05:43:41.484Z,125.60
2018-04-02T05:44:41.469Z,130.40
2018-04-02T05:45:41.442Z,130.00
2018-04-02T05:46:41.423Z,130.80
2018-04-02T05:47:41.398Z,136.00
2018-04-02T05:48:41.379Z,128.10
2018-04-02T05:49:41.360Z,131.40
2018-04-02T05:50:41.337Z,128.10
2018-04-02T05:51:41.315Z,129.80
2018-04-02T05:52:41.295Z,134.20
2018-04-02T05:53:41.274Z,135.80
2018-04-02T05:54:41.265Z,140.70
2018-04-02T05:55:41.235Z,147.50
2018-04-02T05:56:41.226Z,146.90
2018-04-02T05:57:41.195Z,148.90
2018-04-02T05:58:41.169Z,146.10
2018-04-02T05:59:41.198Z,142.10
2018-04-02T06:00:41.130Z,148.00
2018-04-02T06:01:41.107Z,147.70
2018-04-02T06:02:41.086Z,149.00
2018-04-02T06:03:41.068Z,142.80
2018-04-02T06:04:41.046Z,134.60
2018-04-02T06:05:41.025Z,132.50
2018-04-02T06:06:41.003Z,132.00
2018-04-02T06:07:40.990Z,131.40
2018-04-02T06:08:40.968Z,131.30
2018-04-02T06:09:40.944Z,130.20
2018-04-02T06:10:40.926Z,134.80
2018-04-02T06:11:40.899Z,132.30
2018-04-02T06:12:40.885Z,132.10
2018-04-02T06:13:40.860Z,128.80
2018-04-02T06:14:40.836Z,132.70
2018-04-02T06:15:40.817Z,130.60
2018-04-02T06:16:40.809Z,130.20
2018-04-02T06:17:40.774Z,129.70
2018-04-02T06:18:40.754Z,128.20
2018-04-02T06:19:40.734Z,130.70
2018-04-02T06:20:40.717Z,134.00
2018-04-02T06:21:40.699Z,128.30
2018-04-02T06:22:40.678Z,130.80
2018-04-02T06:23:40.653Z,129.70
2018-04-02T06:24:40.633Z,132.00
2018-04-02T06:25:40.615Z,130.80
2018-04-02T06:26:40.592Z,136.80
2018-04-02T06:27:40.567Z,129.20
2018-04-02T06:28:40.547Z,128.50
2018-04-02T06:29:40.526Z,132.80
2018-04-02T06:30:40.504Z,135.90
2018-04-02T06:31:40.493Z,126.90
2018-04-02T06:32:40.465Z,128.50
2018-04-02T06:33:40.446Z,126.80
2018-04-02T06:34:40.433Z,124.30
2018-04-02T06:35:40.408Z,131.10
2018-04-02T06:36:40.385Z,126.10
2018-04-02T06:37:40.372Z,129.30
2018-04-02T06:38:40.342Z,128.40
2018-04-02T06:39:40.330Z,132.10
2018-04-02T06:40:40.304Z,127.10
2018-04-02T06:41:40.282Z,124.40
2018-04-02T06:42:40.259Z,126.50
2018-04-02T06:43:40.235Z,125.80
2018-04-02T06:44:40.215Z,122.60
2018-04-02T06:45:40.203Z,123.00
2018-04-02T06:46:40.175Z,125.50
2018-04-02T06:47:40.154Z,125.20
2018-04-02T06:48:40.132Z,126.80
2018-04-02T06:49:40.121Z,120.10
2018-04-02T06:50:40.092Z,121.70
2018-04-02T06:51:40.078Z,124.70
2018-04-02T06:52:40.065Z,121.70
2018-04-02T06:53:40.030Z,122.40
2018-04-02T06:54:40.014Z,121.90
2018-04-02T06:55:39.989Z,120.10
2018-04-02T06:56:39.974Z,123.20
2018-04-02T06:57:39.950Z,118.70
2018-04-02T06:58:39.926Z,122.10
2018-04-02T06:59:39.905Z,124.10
2018-04-02T07:00:39.889Z,120.30
2018-04-02T07:01:39.864Z,120.90
2018-04-02T07:02:39.843Z,117.60
2018-04-02T07:03:39.830Z,120.90
2018-04-02T07:04:39.807Z,117.30
2018-04-02T07:05:39.788Z,120.30
2018-04-02T07:06:39.766Z,120.00
2018-04-02T07:07:39.755Z,115.10
2018-04-02T07:08:39.723Z,121.10
2018-04-02T07:09:39.713Z,118.30
2018-04-02T07:10:39.682Z,117.40
2018-04-02T07:11:39.663Z,117.80
2018-04-02T07:12:39.645Z,116.60
2018-04-02T07:13:39.631Z,115.50
2018-04-02T07:14:39.604Z,118.00
2018-04-02T07:15:39.579Z,117.20
2018-04-02T07:16:39.564Z,113.80
2018-04-02T07:17:39.538Z,113.90
2018-04-02T07:18:39.522Z,112.60
2018-04-02T07:19:39.496Z,107.50
2018-04-02T07:20:39.476Z,110.50
2018-04-02T07:21:39.456Z,110.50
2018-04-02T07:22:39.433Z,111.50
2018-04-02T07:23:39.412Z,108.70
2018-04-02T07:24:39.395Z,107.40
2018-04-02T07:25:39.376Z,109.80
2018-04-02T07:26:39.359Z,111.70
2018-04-02T07:27:39.333Z,107.50
2018-04-02T07:28:39.316Z,107.10
2018-04-02T07:29:39.296Z,109.10
2018-04-02T07:30:39.276Z,111.50
2018-04-02T07:31:39.253Z,109.30
2018-04-02T07:32:39.232Z,109.80
2018-04-02T07:33:39.217Z,105.30
2018-04-02T07:34:39.191Z,108.10
2018-04-02T07:35:39.175Z,104.30
2018-04-02T07:36:39.152Z,105.20
2018-04-02T07:37:39.126Z,102.40
2018-04-02T07:38:39.115Z,102.40
2018-04-02T07:39:39.088Z,109.00
2018-04-02T07:40:39.066Z,104.30
2018-04-02T07:41:39.044Z,104.00
2018-04-02T07:42:39.024Z,108.00
2018-04-02T07:43:39.006Z,106.30
2018-04-02T07:44:38.984Z,101.50
2018-04-02T07:45:38.965Z,104.90
2018-04-02T07:46:38.949Z,105.10
2018-04-02T07:47:38.921Z,107.50
2018-04-02T07:48:38.910Z,104.20
2018-04-02T07:49:38.889Z,100.50
2018-04-02T07:50:38.900Z,102.90
2018-04-02T07:51:38.844Z,99.20
2018-04-02T07:52:38.819Z,101.00
2018-04-02T07:53:38.803Z,98.10
2018-04-02T07:54:38.781Z,99.50
2018-04-02T07:55:38.773Z,102.50
2018-04-02T07:56:38.737Z,100.20
2018-04-02T07:57:38.727Z,98.20
2018-04-02T07:58:38.702Z,98.90
2018-04-02T07:59:38.681Z,99.20
2018-04-02T08:00:38.659Z,95.90
2018-04-02T08:01:38.639Z,104.20
2018-04-02T08:02:38.621Z,96.30
2018-04-02T08:03:38.596Z,92.50
2018-04-02T08:04:38.576Z,101.10
2018-04-02T08:05:38.560Z,97.40
2018-04-02T08:06:38.536Z,97.60
2018-04-02T08:07:38.515Z,99.00
2018-04-02T08:08:38.513Z,98.60
2018-04-02T08:09:38.484Z,93.10
2018-04-02T08:10:38.453Z,93.80
2018-04-02T08:11:38.440Z,94.60
2018-04-02T08:12:38.417Z,95.40
2018-04-02T08:13:38.399Z,92.30
2018-04-02T08:14:38.376Z,96.70
2018-04-02T08:15:38.357Z,92.30
2018-04-02T08:16:38.341Z,92.70
2018-04-02T08:17:38.317Z,92.90
2018-04-02T08:18:38.293Z,95.60
2018-04-02T08:19:38.272Z,92.60
2018-04-02T08:20:38.254Z,89.60
2018-04-02T08:21:38.232Z,92.20
2018-04-02T08:22:38.219Z,94.10
2018-04-02T08:23:38.194Z,90.90
2018-04-02T08:24:38.169Z,90.00
2018-04-02T08:25:38.159Z,86.60
2018-04-02T08:26:38.130Z,88.50
2018-04-02T08:27:38.111Z,87.20
2018-04-02T08:28:38.098Z,86.80
2018-04-02T08:29:38.074Z,85.40
2018-04-02T08:30:38.052Z,85.30
2018-04-02T08:31:38.027Z,86.00
2018-04-02T08:32:38.068Z,88.80
2018-04-02T08:33:37.986Z,87.90
2018-04-02T08:34:37.977Z,83.60
2018-04-02T08:35:37.950Z,78.80
2018-04-02T08:36:37.927Z,76.20
2018-04-02T08:37:37.909Z,83.70
2018-04-02T08:38:37.900Z,82.50
2018-04-02T08:39:37.866Z,82.50
2018-04-02T08:40:37.849Z,82.90
2018-04-02T08:41:37.825Z,81.10
2018-04-02T08:42:37.804Z,81.50
2018-04-02T08:43:37.784Z,81.60
2018-04-02T08:44:37.766Z,82.20
2018-04-02T08:45:37.756Z,77.70
2018-04-02T08:46:37.725Z,77.50
2018-04-02T08:47:37.716Z,71.20
2018-04-02T08:48:37.686Z,71.60
2018-04-02T08:49:37.669Z,71.90
2018-04-02T08:50:37.646Z,73.90
2018-04-02T08:51:37.627Z,74.60
2018-04-02T08:52:37.611Z,73.20
2018-04-02T08:53:37.590Z,72.80
2018-04-02T08:54:37.584Z,72.20
2018-04-02T08:55:37.555Z,74.70
2018-04-02T08:56:37.532Z,75.30
2018-04-02T08:57:37.512Z,70.50
2018-04-02T08:58:37.492Z,68.10
2018-04-02T08:59:37.467Z,67.60
2018-04-02T09:00:37.498Z,64.90
2018-04-02T09:01:37.431Z,65.30
2018-04-02T09:02:37.410Z,67.20
2018-04-02T09:03:37.401Z,68.70
2018-04-02T09:04:37.371Z,70.60
2018-04-02T09:05:37.366Z,68.20
2018-04-02T09:06:37.333Z,68.50
2018-04-02T09:07:37.313Z,61.80
2018-04-02T09:08:37.293Z,66.10
2018-04-02T09:09:37.289Z,65.70
2018-04-02T09:10:37.258Z,63.80
2018-04-02T09:11:37.236Z,63.40
2018-04-02T09:12:37.213Z,60.60
2018-04-02T09:13:37.200Z,63.60
2018-04-02T09:14:37.180Z,64.90
2018-04-02T09:15:37.159Z,64.60
2018-04-02T09:16:37.143Z,67.10
2018-04-02T09:17:37.123Z,63.50
2018-04-02T09:18:37.093Z,62.90
2018-04-02T09:19:37.076Z,63.70
2018-04-02T09:20:37.053Z,62.70
2018-04-02T09:21:37.039Z,64.40
2018-04-02T09:22:37.026Z,54.00
2018-04-02T09:23:37.001Z,51.30
2018-04-02T09:24:36.989Z,51.60
2018-04-02T09:25:36.968Z,49.40
2018-04-02T09:26:36.936Z,48.20
2018-04-02T09:27:36.935Z,48.80
2018-04-02T09:28:36.903Z,51.10
2018-04-02T09:29:36.880Z,50.70
2018-04-02T09:30:36.863Z,51.20
2018-04-02T09:31:36.842Z,48.70
2018-04-02T09:32:36.827Z,48.90
2018-04-02T09:33:36.809Z,48.40
2018-04-02T09:34:36.784Z,49.00
2018-04-02T09:35:36.766Z,45.70
2018-04-02T09:36:36.743Z,45.70
2018-04-02T09:37:36.722Z,46.60
2018-04-02T09:38:36.703Z,49.60
2018-04-02T09:39:36.682Z,51.80
2018-04-02T09:40:36.666Z,49.90
2018-04-02T09:41:36.648Z,51.10
2018-04-02T09:42:36.626Z,52.00
2018-04-02T09:43:36.606Z,53.90
2018-04-02T09:44:36.595Z,50.10
2018-04-02T09:45:36.566Z,48.30
2018-04-02T09:46:36.555Z,51.30
2018-04-02T09:47:36.536Z,48.50
2018-04-02T09:48:36.515Z,44.60
2018-04-02T09:49:36.495Z,48.50
2018-04-02T09:50:36.468Z,48.80
2018-04-02T09:51:36.452Z,41.50
2018-04-02T09:52:36.436Z,42.30
2018-04-02T09:53:36.413Z,44.90
2018-04-02T09:54:36.391Z,46.50
2018-04-02T09:55:36.386Z,49.10
2018-04-02T09:56:36.360Z,48.40
2018-04-02T09:57:36.337Z,47.40
2018-04-02T09:58:36.328Z,49.40
2018-04-02T09:59:36.296Z,50.30
2018-04-02T10:00:36.274Z,51.70
2018-04-02T10:01:36.256Z,46.50
2018-04-02T10:02:36.239Z,48.10
2018-04-02T10:03:36.216Z,47.50
2018-04-02T10:04:36.382Z,48.40
2018-04-02T10:05:36.192Z,46.30
2018-04-02T10:06:36.164Z,43.80
2018-04-02T10:07:36.145Z,44.40
2018-04-02T10:08:36.121Z,44.70
2018-04-02T10:09:36.107Z,43.60
2018-04-02T10:10:36.107Z,45.40
2018-04-02T10:11:36.068Z,46.40
2018-04-02T10:12:36.046Z,44.10
2018-04-02T10:13:36.030Z,42.00
2018-04-02T10:14:36.009Z,44.40
2018-04-02T10:15:36.045Z,41.10
2018-04-02T10:16:35.968Z,41.90
2018-04-02T10:17:35.956Z,44.20
2018-04-02T10:18:35.925Z,47.60
2018-04-02T10:19:35.908Z,45.80
2018-04-02T10:20:35.897Z,42.90
2018-04-02T10:21:35.872Z,44.10
2018-04-02T10:22:35.854Z,44.40
2018-04-02T10:23:35.837Z,43.20
2018-04-02T10:24:35.827Z,42.70
2018-04-02T10:25:35.808Z,41.40
2018-04-02T10:26:35.785Z,44.30
2018-04-02T10:27:35.757Z,43.40
2018-04-02T10:28:35.736Z,42.80
2018-04-02T10:29:35.738Z,42.50
2018-04-02T10:30:35.696Z,40.90
2018-04-02T10:31:35.680Z,42.30
2018-04-02T10:32:35.659Z,39.30
2018-04-02T10:33:35.640Z,40.10
2018-04-02T10:34:35.619Z,40.10
2018-04-02T10:35:35.606Z,38.60
2018-04-02T10:36:35.583Z,40.80
2018-04-02T10:37:35.562Z,38.20
2018-04-02T10:38:35.543Z,42.00
2018-04-02T10:39:35.532Z,40.80
2018-04-02T10:40:35.513Z,42.40
2018-04-02T10:41:35.518Z,42.30
2018-04-02T10:42:35.469Z,41.10
2018-04-02T10:43:35.446Z,42.10
2018-04-02T10:44:35.424Z,41.50
2018-04-02T10:45:35.426Z,41.10
2018-04-02T10:46:35.392Z,40.30
2018-04-02T10:47:35.376Z,40.80
2018-04-02T10:48:35.383Z,39.70
2018-04-02T10:49:35.332Z,38.10
2018-04-02T10:50:35.312Z,36.10
2018-04-02T10:51:35.297Z,38.10
2018-04-02T10:52:35.273Z,36.90
2018-04-02T10:53:35.257Z,37.60
2018-04-02T10:54:35.236Z,39.10
2018-04-02T10:55:35.219Z,36.50
2018-04-02T10:56:35.204Z,37.00
2018-04-02T10:57:35.196Z,36.90
2018-04-02T10:58:35.163Z,36.60
2018-04-02T10:59:35.150Z,35.50
2018-04-02T11:00:35.149Z,36.30
2018-04-02T11:01:35.110Z,35.70
2018-04-02T11:02:35.093Z,37.30
2018-04-02T11:03:35.080Z,36.80
2018-04-02T11:04:35.052Z,37.60
2018-04-02T11:05:35.044Z,36.70
2018-04-02T11:06:35.014Z,39.20
2018-04-02T11:07:35.001Z,36.70
2018-04-02T11:08:34.977Z,39.50
2018-04-02T11:09:34.954Z,38.40
2018-04-02T11:10:34.944Z,35.90
2018-04-02T11:11:34.917Z,34.50
2018-04-02T11:12:34.920Z,35.30
2018-04-02T11:13:34.876Z,33.40
2018-04-02T11:14:34.858Z,36.60
2018-04-02T11:15:34.839Z,33.30
2018-04-02T11:16:34.824Z,35.20
2018-04-02T11:17:34.802Z,32.90
2018-04-02T11:18:34.785Z,33.70
2018-04-02T11:19:34.766Z,34.40
2018-04-02T11:20:34.746Z,36.90
2018-04-02T11:21:34.728Z,32.90
2018-04-02T11:22:34.751Z,32.40
2018-04-02T11:23:34.686Z,32.40
2018-04-02T11:24:34.669Z,33.80
2018-04-02T11:25:34.650Z,36.10
2018-04-02T11:26:34.646Z,38.20
2018-04-02T11:27:34.608Z,34.80
2018-04-02T11:28:34.593Z,37.00
2018-04-02T11:29:34.579Z,36.30
2018-04-02T11:30:34.552Z,33.50
2018-04-02T11:31:34.534Z,33.30
2018-04-02T11:32:34.518Z,34.80
2018-04-02T11:33:34.498Z,33.30
2018-04-02T11:34:34.476Z,33.70
2018-04-02T11:35:34.458Z,35.60
2018-04-02T11:36:34.444Z,34.30
2018-04-02T11:37:34.424Z,32.40
2018-04-02T11:38:34.404Z,32.30
2018-04-02T11:39:34.386Z,28.70
2018-04-02T11:40:34.368Z,31.20
2018-04-02T11:41:34.363Z,29.30
2018-04-02T11:42:34.336Z,31.00
2018-04-02T11:43:34.313Z,29.60
2018-04-02T11:44:34.294Z,27.50
2018-04-02T11:45:34.281Z,26.60
2018-04-02T11:46:34.257Z,25.60
2018-04-02T11:47:34.236Z,23.40
2018-04-02T11:48:34.220Z,24.00
2018-04-02T11:49:34.196Z,21.50
2018-04-02T11:50:34.185Z,22.30
2018-04-02T11:51:34.166Z,20.70
2018-04-02T11:52:34.142Z,21.40
2018-04-02T11:53:34.126Z,19.50
2018-04-02T11:54:34.121Z,19.00
2018-04-02T11:55:34.095Z,17.90
2018-04-02T11:56:34.074Z,18.30
2018-04-02T11:57:34.055Z,15.90
2018-04-02T11:58:34.045Z,16.80
2018-04-02T11:59:34.015Z,18.20
2018-04-02T12:00:33.995Z,17.30
2018-04-02T12:01:33.977Z,18.70
2018-04-02T12:02:33.961Z,18.60
2018-04-02T12:03:33.936Z,17.40
2018-04-02T12:04:33.923Z,17.10
2018-04-02T12:05:33.914Z,17.70
2018-04-02T12:06:33.879Z,15.50
2018-04-02T12:07:33.863Z,14.90
2018-04-02T12:08:33.857Z,12.60
2018-04-02T12:09:33.828Z,11.00
2018-04-02T12:10:33.809Z,10.90
2018-04-02T12:11:33.799Z,10.10
2018-04-02T12:12:33.775Z,8.60
2018-04-02T12:13:33.765Z,11.00
2018-04-02T12:14:33.734Z,8.90
2018-04-02T12:15:33.714Z,9.00
2018-04-02T12:16:33.697Z,8.50
2018-04-02T12:17:33.684Z,9.40
2018-04-02T12:18:33.663Z,10.00
2018-04-02T12:19:33.642Z,9.80
2018-04-02T12:20:33.624Z,9.20
2018-04-02T12:21:33.606Z,8.60
2018-04-02T12:22:33.585Z,9.80
2018-04-02T12:23:33.567Z,9.40
2018-04-02T12:24:33.560Z,8.30
2018-04-02T12:25:33.536Z,8.20
2018-04-02T12:26:33.516Z,8.40
2018-04-02T12:27:34.117Z,9.00
2018-04-02T12:28:33.477Z,8.60
2018-04-02T12:29:33.454Z,9.00
2018-04-02T12:30:33.438Z,9.80
2018-04-02T12:31:33.418Z,9.80
2018-04-02T12:32:33.400Z,8.20
2018-04-02T12:33:33.398Z,10.90
2018-04-02T12:34:33.369Z,10.80
2018-04-02T12:35:33.348Z,11.00
2018-04-02T12:36:33.325Z,11.60
2018-04-02T12:37:33.310Z,10.50